sensor_id;sensor_type;location;lat;lon;timestamp;P1;P2;P0
78316;PMS7003;67572;50.930;18.276;2023-03-14T00:02:03;8.50;6.75;6.00
78316;PMS7003;67572;50.930;18.276;2023-03-14T00:05:08;9.75;6.75;3.75
78316;PMS7003;67572;50.930;18.276;2023-03-14T00:08:12;6.75;6.75;5.50
78316;PMS7003;67572;50.930;18.276;2023-03-14T00:11:17;9.00;7.00;6.00
78316;PMS7003;67572;50.930;18.276;2023-03-14T00:14:22;6.00;6.00;4.50
78316;PMS7003;67572;50.930;18.276;2023-03-14T00:17:26;6.00;6.00;5.00
78316;PMS7003;67572;50.930;18.276;2023-03-14T00:20:31;10.00;7.25;6.50
78316;PMS7003;67572;50.930;18.276;2023-03-14T00:23:35;6.00;6.00;4.00
78316;PMS7003;67572;50.930;18.276;2023-03-14T00:26:40;6.75;6.75;5.00
78316;PMS7003;67572;50.930;18.276;2023-03-14T00:29:44;7.75;5.75;4.00
78316;PMS7003;67572;50.930;18.276;2023-03-14T00:32:48;7.50;7.00;4.00
78316;PMS7003;67572;50.930;18.276;2023-03-14T00:35:54;10.00;8.50;4.00
78316;PMS7003;67572;50.930;18.276;2023-03-14T00:38:58;4.50;4.50;4.00
78316;PMS7003;67572;50.930;18.276;2023-03-14T00:42:01;7.00;7.00;5.00
78316;PMS7003;67572;50.930;18.276;2023-03-14T00:45:05;4.00;4.00;3.75
78316;PMS7003;67572;50.930;18.276;2023-03-14T00:48:10;10.00;9.00;6.00
78316;PMS7003;67572;50.930;18.276;2023-03-14T00:51:16;8.75;8.50;4.00
78316;PMS7003;67572;50.930;18.276;2023-03-14T00:54:20;7.50;6.25;4.00
78316;PMS7003;67572;50.930;18.276;2023-03-14T00:57:23;9.75;9.75;6.00
78316;PMS7003;67572;50.930;18.276;2023-03-14T01:00:27;6.00;6.00;4.00
78316;PMS7003;67572;50.930;18.276;2023-03-14T01:03:31;6.50;3.75;2.50
78316;PMS7003;67572;50.930;18.276;2023-03-14T01:06:36;5.25;5.00;3.25
78316;PMS7003;67572;50.930;18.276;2023-03-14T01:09:40;6.00;6.00;4.00
78316;PMS7003;67572;50.930;18.276;2023-03-14T01:12:43;10.00;8.00;6.75
78316;PMS7003;67572;50.930;18.276;2023-03-14T01:15:47;5.50;5.50;5.00
78316;PMS7003;67572;50.930;18.276;2023-03-14T01:18:51;6.50;6.50;4.50
78316;PMS7003;67572;50.930;18.276;2023-03-14T01:21:56;6.00;6.00;4.50
78316;PMS7003;67572;50.930;18.276;2023-03-14T01:25:00;4.50;4.50;4.00
78316;PMS7003;67572;50.930;18.276;2023-03-14T01:28:04;6.50;5.75;3.50
78316;PMS7003;67572;50.930;18.276;2023-03-14T01:31:09;4.50;4.50;4.00
78316;PMS7003;67572;50.930;18.276;2023-03-14T01:34:14;6.00;6.00;4.00
78316;PMS7003;67572;50.930;18.276;2023-03-14T01:37:19;7.00;6.00;3.00
78316;PMS7003;67572;50.930;18.276;2023-03-14T01:40:22;6.00;3.75;3.00
78316;PMS7003;67572;50.930;18.276;2023-03-14T01:43:26;4.50;3.50;3.25
78316;PMS7003;67572;50.930;18.276;2023-03-14T01:46:34;7.00;6.00;4.00
78316;PMS7003;67572;50.930;18.276;2023-03-14T01:49:40;7.00;6.50;4.00
78316;PMS7003;67572;50.930;18.276;2023-03-14T01:52:47;4.00;4.00;4.00
78316;PMS7003;67572;50.930;18.276;2023-03-14T01:55:54;4.50;4.50;4.00
78316;PMS7003;67572;50.930;18.276;2023-03-14T01:59:00;6.50;6.50;4.00
78316;PMS7003;67572;50.930;18.276;2023-03-14T02:02:07;6.00;6.00;5.00
78316;PMS7003;67572;50.930;18.276;2023-03-14T02:05:14;5.75;5.50;3.75
78316;PMS7003;67572;50.930;18.276;2023-03-14T02:08:29;7.50;6.75;5.50
78316;PMS7003;67572;50.930;18.276;2023-03-14T02:11:38;6.75;4.00;3.25
78316;PMS7003;67572;50.930;18.276;2023-03-14T02:15:03;5.00;5.00;4.00
78316;PMS7003;67572;50.930;18.276;2023-03-14T02:18:36;13.25;7.25;5.50
78316;PMS7003;67572;50.930;18.276;2023-03-14T02:22:11;7.00;6.00;3.75
78316;PMS7003;67572;50.930;18.276;2023-03-14T02:25:24;9.50;9.00;7.50
78316;PMS7003;67572;50.930;18.276;2023-03-14T02:28:40;10.00;9.75;6.75
78316;PMS7003;67572;50.930;18.276;2023-03-14T02:31:44;5.00;5.00;5.00
78316;PMS7003;67572;50.930;18.276;2023-03-14T02:34:52;6.50;6.50;4.50
78316;PMS7003;67572;50.930;18.276;2023-03-14T02:38:00;14.25;8.25;7.50
78316;PMS7003;67572;50.930;18.276;2023-03-14T02:41:11;8.00;8.00;7.00
78316;PMS7003;67572;50.930;18.276;2023-03-14T02:44:21;6.50;5.00;3.00
78316;PMS7003;67572;50.930;18.276;2023-03-14T02:47:26;8.25;8.00;6.00
78316;PMS7003;67572;50.930;18.276;2023-03-14T02:50:33;4.50;4.50;4.00
78316;PMS7003;67572;50.930;18.276;2023-03-14T02:53:37;6.00;6.00;4.00
78316;PMS7003;67572;50.930;18.276;2023-03-14T02:56:45;4.00;4.00;3.25
78316;PMS7003;67572;50.930;18.276;2023-03-14T02:59:51;4.50;4.50;3.50
78316;PMS7003;67572;50.930;18.276;2023-03-14T03:02:55;6.75;6.75;4.00
78316;PMS7003;67572;50.930;18.276;2023-03-14T03:05:59;6.00;6.00;3.25
78316;PMS7003;67572;50.930;18.276;2023-03-14T03:09:03;6.50;6.50;4.00
78316;PMS7003;67572;50.930;18.276;2023-03-14T03:12:07;6.50;6.50;4.00
78316;PMS7003;67572;50.930;18.276;2023-03-14T03:15:12;6.75;6.00;3.00
78316;PMS7003;67572;50.930;18.276;2023-03-14T03:18:16;4.00;4.00;3.75
78316;PMS7003;67572;50.930;18.276;2023-03-14T03:21:20;11.00;6.25;4.50
78316;PMS7003;67572;50.930;18.276;2023-03-14T03:24:25;6.75;5.00;2.50
78316;PMS7003;67572;50.930;18.276;2023-03-14T03:27:29;10.25;8.25;5.75
78316;PMS7003;67572;50.930;18.276;2023-03-14T03:30:35;6.00;4.00;3.00
78316;PMS7003;67572;50.930;18.276;2023-03-14T03:33:41;6.00;6.00;4.50
78316;PMS7003;67572;50.930;18.276;2023-03-14T03:36:45;8.50;5.00;4.00
78316;PMS7003;67572;50.930;18.276;2023-03-14T03:39:50;10.00;9.00;4.00
78316;PMS7003;67572;50.930;18.276;2023-03-14T03:43:02;5.50;5.50;4.00
78316;PMS7003;67572;50.930;18.276;2023-03-14T03:46:12;7.00;7.00;4.00
78316;PMS7003;67572;50.930;18.276;2023-03-14T03:49:16;3.25;3.25;3.00
78316;PMS7003;67572;50.930;18.276;2023-03-14T03:52:23;4.50;4.50;3.75
78316;PMS7003;67572;50.930;18.276;2023-03-14T03:55:27;6.00;6.00;3.50
78316;PMS7003;67572;50.930;18.276;2023-03-14T03:58:31;3.50;3.50;2.00
78316;PMS7003;67572;50.930;18.276;2023-03-14T04:01:36;3.75;3.50;2.00
78316;PMS7003;67572;50.930;18.276;2023-03-14T04:04:44;2.50;1.00;1.00
78316;PMS7003;67572;50.930;18.276;2023-03-14T04:07:48;6.00;6.00;4.00
78316;PMS7003;67572;50.930;18.276;2023-03-14T04:10:57;7.00;7.00;5.00
78316;PMS7003;67572;50.930;18.276;2023-03-14T04:14:25;6.50;6.00;4.50
78316;PMS7003;67572;50.930;18.276;2023-03-14T04:17:38;6.25;6.25;3.50
78316;PMS7003;67572;50.930;18.276;2023-03-14T04:20:43;3.50;3.50;3.25
78316;PMS7003;67572;50.930;18.276;2023-03-14T04:23:47;5.00;5.00;4.00
78316;PMS7003;67572;50.930;18.276;2023-03-14T04:26:55;4.00;4.00;3.00
78316;PMS7003;67572;50.930;18.276;2023-03-14T04:30:01;6.75;6.75;4.50
78316;PMS7003;67572;50.930;18.276;2023-03-14T04:33:32;7.00;7.00;4.00
78316;PMS7003;67572;50.930;18.276;2023-03-14T04:36:36;6.50;6.50;4.00
78316;PMS7003;67572;50.930;18.276;2023-03-14T04:39:45;3.00;3.00;2.00
78316;PMS7003;67572;50.930;18.276;2023-03-14T04:43:00;5.50;3.00;3.00
78316;PMS7003;67572;50.930;18.276;2023-03-14T04:46:05;6.25;4.00;3.00
78316;PMS7003;67572;50.930;18.276;2023-03-14T04:49:10;7.00;7.00;6.00
78316;PMS7003;67572;50.930;18.276;2023-03-14T04:52:14;4.25;3.75;3.50
78316;PMS7003;67572;50.930;18.276;2023-03-14T04:55:18;4.00;4.00;3.25
78316;PMS7003;67572;50.930;18.276;2023-03-14T04:58:26;2.00;1.50;1.00
78316;PMS7003;67572;50.930;18.276;2023-03-14T05:01:32;5.00;5.00;3.75
78316;PMS7003;67572;50.930;18.276;2023-03-14T05:04:55;4.50;4.00;2.00
78316;PMS7003;67572;50.930;18.276;2023-03-14T05:08:13;9.00;4.00;4.00
78316;PMS7003;67572;50.930;18.276;2023-03-14T05:11:35;4.00;3.25;1.50
78316;PMS7003;67572;50.930;18.276;2023-03-14T05:14:47;4.00;4.00;3.00
78316;PMS7003;67572;50.930;18.276;2023-03-14T05:18:17;4.00;4.00;3.75
78316;PMS7003;67572;50.930;18.276;2023-03-14T05:21:52;6.00;6.00;4.00
78316;PMS7003;67572;50.930;18.276;2023-03-14T05:25:08;4.00;4.00;4.00
78316;PMS7003;67572;50.930;18.276;2023-03-14T05:28:42;9.50;8.00;5.50
78316;PMS7003;67572;50.930;18.276;2023-03-14T05:32:04;7.00;5.75;4.00
78316;PMS7003;67572;50.930;18.276;2023-03-14T05:35:26;4.50;4.50;3.25
78316;PMS7003;67572;50.930;18.276;2023-03-14T05:38:52;3.75;3.75;3.50
78316;PMS7003;67572;50.930;18.276;2023-03-14T05:42:16;4.00;4.00;4.00
78316;PMS7003;67572;50.930;18.276;2023-03-14T05:45:32;9.75;9.50;6.00
78316;PMS7003;67572;50.930;18.276;2023-03-14T05:48:55;9.25;3.25;3.25
78316;PMS7003;67572;50.930;18.276;2023-03-14T05:52:21;8.50;6.00;4.00
78316;PMS7003;67572;50.930;18.276;2023-03-14T05:55:56;2.50;2.50;1.00
78316;PMS7003;67572;50.930;18.276;2023-03-14T05:59:20;7.00;5.50;4.00
78316;PMS7003;67572;50.930;18.276;2023-03-14T06:02:42;7.00;7.00;4.00
78316;PMS7003;67572;50.930;18.276;2023-03-14T06:05:55;4.50;4.00;3.50
78316;PMS7003;67572;50.930;18.276;2023-03-14T06:08:58;8.50;7.25;3.25
78316;PMS7003;67572;50.930;18.276;2023-03-14T06:12:06;8.50;4.50;4.00
78316;PMS7003;67572;50.930;18.276;2023-03-14T06:15:15;2.00;1.00;1.00
78316;PMS7003;67572;50.930;18.276;2023-03-14T06:18:22;6.25;6.25;4.50
78316;PMS7003;67572;50.930;18.276;2023-03-14T06:21:27;8.50;8.00;6.50
78316;PMS7003;67572;50.930;18.276;2023-03-14T06:24:31;3.75;3.75;3.00
78316;PMS7003;67572;50.930;18.276;2023-03-14T06:27:36;6.00;6.00;4.00
78316;PMS7003;67572;50.930;18.276;2023-03-14T06:30:40;5.50;5.50;5.00
78316;PMS7003;67572;50.930;18.276;2023-03-14T06:33:46;9.00;7.00;4.50
78316;PMS7003;67572;50.930;18.276;2023-03-14T06:36:50;7.25;4.00;3.00
78316;PMS7003;67572;50.930;18.276;2023-03-14T06:39:54;6.00;6.00;4.00
78316;PMS7003;67572;50.930;18.276;2023-03-14T06:43:19;4.00;4.00;4.00
78316;PMS7003;67572;50.930;18.276;2023-03-14T06:46:22;7.50;7.50;6.00
78316;PMS7003;67572;50.930;18.276;2023-03-14T06:49:27;6.75;6.75;5.50
78316;PMS7003;67572;50.930;18.276;2023-03-14T06:52:33;6.50;6.50;5.00
78316;PMS7003;67572;50.930;18.276;2023-03-14T06:55:37;8.75;7.00;6.25
78316;PMS7003;67572;50.930;18.276;2023-03-14T06:58:43;9.50;7.00;4.00
78316;PMS7003;67572;50.930;18.276;2023-03-14T07:01:52;4.75;4.75;3.00
78316;PMS7003;67572;50.930;18.276;2023-03-14T07:04:56;12.50;10.50;6.00
78316;PMS7003;67572;50.930;18.276;2023-03-14T07:08:00;70.00;56.25;33.00
78316;PMS7003;67572;50.930;18.276;2023-03-14T07:11:03;26.25;22.50;17.25
78316;PMS7003;67572;50.930;18.276;2023-03-14T07:14:10;8.00;6.00;3.00
78316;PMS7003;67572;50.930;18.276;2023-03-14T07:17:13;82.25;68.50;45.25
78316;PMS7003;67572;50.930;18.276;2023-03-14T07:20:17;78.75;66.00;45.50
78316;PMS7003;67572;50.930;18.276;2023-03-14T07:23:21;12.75;12.75;8.50
78316;PMS7003;67572;50.930;18.276;2023-03-14T07:26:27;10.75;10.75;9.00
78316;PMS7003;67572;50.930;18.276;2023-03-14T07:29:32;15.00;13.00;9.00
78316;PMS7003;67572;50.930;18.276;2023-03-14T07:32:38;9.00;7.00;5.00
78316;PMS7003;67572;50.930;18.276;2023-03-14T07:35:41;11.00;9.75;7.00
78316;PMS7003;67572;50.930;18.276;2023-03-14T07:38:45;7.50;7.50;7.00
78316;PMS7003;67572;50.930;18.276;2023-03-14T07:42:06;12.00;10.00;8.00
78316;PMS7003;67572;50.930;18.276;2023-03-14T07:45:29;9.75;9.00;6.00
78316;PMS7003;67572;50.930;18.276;2023-03-14T07:48:33;15.25;12.75;10.00
78316;PMS7003;67572;50.930;18.276;2023-03-14T07:51:36;13.50;12.00;9.50
78316;PMS7003;67572;50.930;18.276;2023-03-14T07:54:40;9.75;9.75;6.00
78316;PMS7003;67572;50.930;18.276;2023-03-14T07:57:43;10.00;10.00;6.50
78316;PMS7003;67572;50.930;18.276;2023-03-14T08:00:48;7.00;6.00;3.50
78316;PMS7003;67572;50.930;18.276;2023-03-14T08:03:52;10.00;10.00;6.75
78316;PMS7003;67572;50.930;18.276;2023-03-14T08:06:56;10.00;8.50;7.00
78316;PMS7003;67572;50.930;18.276;2023-03-14T08:09:59;10.75;9.50;6.50
78316;PMS7003;67572;50.930;18.276;2023-03-14T08:13:03;9.75;6.00;5.00
78316;PMS7003;67572;50.930;18.276;2023-03-14T08:16:08;14.50;12.50;9.00
78316;PMS7003;67572;50.930;18.276;2023-03-14T08:19:12;8.00;8.00;7.00
78316;PMS7003;67572;50.930;18.276;2023-03-14T08:22:15;6.00;6.00;6.00
78316;PMS7003;67572;50.930;18.276;2023-03-14T08:25:21;9.00;9.00;6.75
78316;PMS7003;67572;50.930;18.276;2023-03-14T08:28:24;7.50;7.50;4.50
78316;PMS7003;67572;50.930;18.276;2023-03-14T08:31:33;13.25;12.25;9.25
78316;PMS7003;67572;50.930;18.276;2023-03-14T08:34:37;13.50;9.75;7.00
78316;PMS7003;67572;50.930;18.276;2023-03-14T08:37:41;12.25;11.50;8.50
78316;PMS7003;67572;50.930;18.276;2023-03-14T08:40:44;4.50;3.50;0.00
78316;PMS7003;67572;50.930;18.276;2023-03-14T08:43:48;4.00;3.00;1.00
78316;PMS7003;67572;50.930;18.276;2023-03-14T08:46:53;7.50;7.50;6.00
78316;PMS7003;67572;50.930;18.276;2023-03-14T08:49:56;9.25;9.00;7.00
78316;PMS7003;67572;50.930;18.276;2023-03-14T08:53:00;9.00;9.00;7.50
78316;PMS7003;67572;50.930;18.276;2023-03-14T08:56:04;9.50;9.50;6.75
78316;PMS7003;67572;50.930;18.276;2023-03-14T08:59:08;12.50;12.50;9.00
78316;PMS7003;67572;50.930;18.276;2023-03-14T09:02:14;5.50;5.50;3.00
78316;PMS7003;67572;50.930;18.276;2023-03-14T09:05:17;16.00;9.75;6.75
78316;PMS7003;67572;50.930;18.276;2023-03-14T09:08:21;9.25;9.25;8.00
78316;PMS7003;67572;50.930;18.276;2023-03-14T09:11:24;1.50;1.00;0.50
78316;PMS7003;67572;50.930;18.276;2023-03-14T09:14:29;10.00;9.00;7.00
78316;PMS7003;67572;50.930;18.276;2023-03-14T09:17:35;3.50;3.25;2.50
78316;PMS7003;67572;50.930;18.276;2023-03-14T09:20:39;6.25;6.25;6.00
78316;PMS7003;67572;50.930;18.276;2023-03-14T09:23:43;10.00;10.00;7.50
78316;PMS7003;67572;50.930;18.276;2023-03-14T09:26:47;9.00;9.00;6.00
78316;PMS7003;67572;50.930;18.276;2023-03-14T09:29:51;12.00;12.00;9.75
78316;PMS7003;67572;50.930;18.276;2023-03-14T09:32:55;14.50;12.75;10.00
78316;PMS7003;67572;50.930;18.276;2023-03-14T09:36:01;20.50;11.00;9.00
78316;PMS7003;67572;50.930;18.276;2023-03-14T09:39:05;9.50;9.50;6.75
78316;PMS7003;67572;50.930;18.276;2023-03-14T09:42:19;12.25;10.50;8.50
78316;PMS7003;67572;50.930;18.276;2023-03-14T09:45:26;12.00;12.00;9.00
78316;PMS7003;67572;50.930;18.276;2023-03-14T09:48:33;11.50;10.75;7.00
78316;PMS7003;67572;50.930;18.276;2023-03-14T09:51:37;14.00;12.75;10.00
78316;PMS7003;67572;50.930;18.276;2023-03-14T09:54:44;17.00;15.50;9.75
78316;PMS7003;67572;50.930;18.276;2023-03-14T09:57:53;17.00;13.75;11.00
78316;PMS7003;67572;50.930;18.276;2023-03-14T10:01:00;7.00;7.00;4.00
78316;PMS7003;67572;50.930;18.276;2023-03-14T10:04:10;11.50;10.00;8.00
78316;PMS7003;67572;50.930;18.276;2023-03-14T10:07:18;15.25;14.00;12.00
78316;PMS7003;67572;50.930;18.276;2023-03-14T10:10:25;6.00;6.00;5.00
78316;PMS7003;67572;50.930;18.276;2023-03-14T10:13:29;13.25;13.25;10.25
78316;PMS7003;67572;50.930;18.276;2023-03-14T10:16:35;18.00;16.00;15.00
78316;PMS7003;67572;50.930;18.276;2023-03-14T10:19:50;13.00;13.00;12.00
78316;PMS7003;67572;50.930;18.276;2023-03-14T10:22:55;16.00;16.00;13.00
78316;PMS7003;67572;50.930;18.276;2023-03-14T10:26:02;12.00;12.00;8.00
78316;PMS7003;67572;50.930;18.276;2023-03-14T10:29:11;13.00;13.00;12.00
78316;PMS7003;67572;50.930;18.276;2023-03-14T10:32:21;23.00;19.25;12.75
78316;PMS7003;67572;50.930;18.276;2023-03-14T10:35:32;16.50;15.75;13.50
78316;PMS7003;67572;50.930;18.276;2023-03-14T10:38:37;18.00;16.00;12.00
78316;PMS7003;67572;50.930;18.276;2023-03-14T10:41:41;15.00;13.00;10.00
78316;PMS7003;67572;50.930;18.276;2023-03-14T10:44:53;20.00;17.50;13.50
78316;PMS7003;67572;50.930;18.276;2023-03-14T10:48:05;20.00;17.75;11.50
78316;PMS7003;67572;50.930;18.276;2023-03-14T10:51:20;16.50;13.25;9.25
78316;PMS7003;67572;50.930;18.276;2023-03-14T10:54:29;15.00;15.00;11.00
78316;PMS7003;67572;50.930;18.276;2023-03-14T10:57:37;24.75;23.50;16.00
78316;PMS7003;67572;50.930;18.276;2023-03-14T11:00:41;16.25;14.75;12.00
78316;PMS7003;67572;50.930;18.276;2023-03-14T11:03:47;15.75;14.00;10.00
78316;PMS7003;67572;50.930;18.276;2023-03-14T11:06:58;19.00;19.00;15.00
78316;PMS7003;67572;50.930;18.276;2023-03-14T11:10:09;24.25;19.25;14.50
78316;PMS7003;67572;50.930;18.276;2023-03-14T11:13:22;16.00;16.00;12.00
78316;PMS7003;67572;50.930;18.276;2023-03-14T11:16:31;18.00;17.00;10.50
78316;PMS7003;67572;50.930;18.276;2023-03-14T11:19:46;20.00;18.00;12.50
78316;PMS7003;67572;50.930;18.276;2023-03-14T11:23:03;16.50;16.50;13.50
78316;PMS7003;67572;50.930;18.276;2023-03-14T11:26:20;20.50;17.75;14.00
78316;PMS7003;67572;50.930;18.276;2023-03-14T11:29:33;11.50;11.00;8.50
78316;PMS7003;67572;50.930;18.276;2023-03-14T11:32:43;13.25;13.25;9.50
78316;PMS7003;67572;50.930;18.276;2023-03-14T11:35:49;18.25;16.00;12.25
78316;PMS7003;67572;50.930;18.276;2023-03-14T11:39:02;13.50;13.00;9.75
78316;PMS7003;67572;50.930;18.276;2023-03-14T11:42:16;17.50;15.00;10.50
78316;PMS7003;67572;50.930;18.276;2023-03-14T11:45:22;15.50;14.00;11.50
78316;PMS7003;67572;50.930;18.276;2023-03-14T11:48:37;17.50;15.00;11.50
78316;PMS7003;67572;50.930;18.276;2023-03-14T11:51:46;14.00;14.00;10.00
78316;PMS7003;67572;50.930;18.276;2023-03-14T11:54:53;14.25;14.00;10.50
78316;PMS7003;67572;50.930;18.276;2023-03-14T11:58:02;15.25;13.00;10.00
78316;PMS7003;67572;50.930;18.276;2023-03-14T12:01:17;46.50;40.25;30.00
78316;PMS7003;67572;50.930;18.276;2023-03-14T12:04:35;21.75;21.00;16.00
78316;PMS7003;67572;50.930;18.276;2023-03-14T12:07:53;25.50;21.00;13.00
78316;PMS7003;67572;50.930;18.276;2023-03-14T12:11:24;19.00;17.00;13.00
78316;PMS7003;67572;50.930;18.276;2023-03-14T12:14:36;21.50;20.00;16.50
78316;PMS7003;67572;50.930;18.276;2023-03-14T12:17:47;18.25;18.00;13.00
78316;PMS7003;67572;50.930;18.276;2023-03-14T12:20:57;20.00;18.75;12.25
78316;PMS7003;67572;50.930;18.276;2023-03-14T12:24:03;26.50;22.00;15.50
78316;PMS7003;67572;50.930;18.276;2023-03-14T12:27:10;21.50;20.00;15.00
78316;PMS7003;67572;50.930;18.276;2023-03-14T12:30:37;24.75;24.75;19.00
78316;PMS7003;67572;50.930;18.276;2023-03-14T12:33:42;18.25;17.50;13.50
78316;PMS7003;67572;50.930;18.276;2023-03-14T12:36:51;21.50;20.00;15.00
78316;PMS7003;67572;50.930;18.276;2023-03-14T12:40:05;28.00;25.00;20.00
78316;PMS7003;67572;50.930;18.276;2023-03-14T12:43:26;18.50;15.00;13.50
78316;PMS7003;67572;50.930;18.276;2023-03-14T12:46:30;25.50;22.50;15.75
78316;PMS7003;67572;50.930;18.276;2023-03-14T12:49:35;19.75;19.75;15.50
78316;PMS7003;67572;50.930;18.276;2023-03-14T12:52:41;27.50;23.00;18.25
78316;PMS7003;67572;50.930;18.276;2023-03-14T12:55:54;20.75;20.75;14.50
78316;PMS7003;67572;50.930;18.276;2023-03-14T13:02:36;21.75;15.25;9.50
78316;PMS7003;67572;50.930;18.276;2023-03-14T13:05:51;20.00;18.25;14.00
78316;PMS7003;67572;50.930;18.276;2023-03-14T13:08:56;21.00;20.00;12.50
78316;PMS7003;67572;50.930;18.276;2023-03-14T13:12:00;18.00;18.00;14.00
78316;PMS7003;67572;50.930;18.276;2023-03-14T13:15:18;21.75;20.00;14.00
78316;PMS7003;67572;50.930;18.276;2023-03-14T13:18:27;25.00;24.25;18.50
78316;PMS7003;67572;50.930;18.276;2023-03-14T13:21:35;25.50;18.25;13.00
78316;PMS7003;67572;50.930;18.276;2023-03-14T13:24:40;13.75;12.00;6.25
78316;PMS7003;67572;50.930;18.276;2023-03-14T13:27:44;20.75;18.00;14.00
78316;PMS7003;67572;50.930;18.276;2023-03-14T13:30:49;26.50;23.25;15.25
78316;PMS7003;67572;50.930;18.276;2023-03-14T13:33:58;18.50;16.50;9.50
78316;PMS7003;67572;50.930;18.276;2023-03-14T13:37:03;20.00;18.75;15.25
78316;PMS7003;67572;50.930;18.276;2023-03-14T13:40:17;23.00;22.50;17.50
78316;PMS7003;67572;50.930;18.276;2023-03-14T13:43:23;26.00;23.00;15.00
78316;PMS7003;67572;50.930;18.276;2023-03-14T13:46:32;20.50;11.50;6.25
78316;PMS7003;67572;50.930;18.276;2023-03-14T13:49:38;19.25;17.75;12.75
78316;PMS7003;67572;50.930;18.276;2023-03-14T13:52:42;24.25;24.25;16.25
78316;PMS7003;67572;50.930;18.276;2023-03-14T13:55:48;22.00;20.00;16.00
78316;PMS7003;67572;50.930;18.276;2023-03-14T13:58:52;26.25;23.25;15.00
78316;PMS7003;67572;50.930;18.276;2023-03-14T14:01:58;22.25;22.25;17.00
78316;PMS7003;67572;50.930;18.276;2023-03-14T14:05:04;20.75;20.75;15.00
78316;PMS7003;67572;50.930;18.276;2023-03-14T14:08:10;22.00;22.00;15.50
78316;PMS7003;67572;50.930;18.276;2023-03-14T14:11:18;18.50;14.25;11.50
78316;PMS7003;67572;50.930;18.276;2023-03-14T14:14:37;28.25;23.50;15.75
78316;PMS7003;67572;50.930;18.276;2023-03-14T14:17:48;23.00;19.50;14.50
78316;PMS7003;67572;50.930;18.276;2023-03-14T14:20:55;24.00;22.75;17.50
78316;PMS7003;67572;50.930;18.276;2023-03-14T14:23:59;37.25;34.25;20.50
78316;PMS7003;67572;50.930;18.276;2023-03-14T14:27:08;26.00;21.50;15.00
78316;PMS7003;67572;50.930;18.276;2023-03-14T14:30:27;17.50;17.50;14.00
78316;PMS7003;67572;50.930;18.276;2023-03-14T14:33:40;28.50;22.50;16.75
78316;PMS7003;67572;50.930;18.276;2023-03-14T14:36:46;26.50;24.25;16.00
78316;PMS7003;67572;50.930;18.276;2023-03-14T14:39:52;19.00;18.00;13.50
78316;PMS7003;67572;50.930;18.276;2023-03-14T14:43:01;25.50;24.50;15.50
78316;PMS7003;67572;50.930;18.276;2023-03-14T14:46:08;12.75;7.50;5.50
78316;PMS7003;67572;50.930;18.276;2023-03-14T14:49:15;25.50;24.00;16.00
78316;PMS7003;67572;50.930;18.276;2023-03-14T14:52:30;27.75;24.75;17.00
78316;PMS7003;67572;50.930;18.276;2023-03-14T14:55:39;9.25;9.25;5.50
78316;PMS7003;67572;50.930;18.276;2023-03-14T14:58:44;20.00;19.00;15.25
78316;PMS7003;67572;50.930;18.276;2023-03-14T15:01:49;31.25;31.25;24.00
78316;PMS7003;67572;50.930;18.276;2023-03-14T15:04:54;21.00;18.00;12.00
78316;PMS7003;67572;50.930;18.276;2023-03-14T15:07:58;24.00;23.50;18.00
78316;PMS7003;67572;50.930;18.276;2023-03-14T15:11:02;33.75;27.25;19.00
78316;PMS7003;67572;50.930;18.276;2023-03-14T15:14:07;20.00;18.00;13.00
78316;PMS7003;67572;50.930;18.276;2023-03-14T15:17:11;20.00;17.00;14.00
78316;PMS7003;67572;50.930;18.276;2023-03-14T15:20:18;18.50;17.00;14.00
78316;PMS7003;67572;50.930;18.276;2023-03-14T15:23:26;24.75;22.50;18.00
78316;PMS7003;67572;50.930;18.276;2023-03-14T15:26:29;23.00;22.00;13.00
78316;PMS7003;67572;50.930;18.276;2023-03-14T15:29:33;16.25;16.25;10.50
78316;PMS7003;67572;50.930;18.276;2023-03-14T15:32:37;26.50;26.50;18.75
78316;PMS7003;67572;50.930;18.276;2023-03-14T15:35:42;20.50;20.50;12.00
78316;PMS7003;67572;50.930;18.276;2023-03-14T15:38:46;20.00;16.25;9.00
78316;PMS7003;67572;50.930;18.276;2023-03-14T15:41:49;25.25;25.25;18.50
78316;PMS7003;67572;50.930;18.276;2023-03-14T15:44:53;30.50;27.25;17.25
78316;PMS7003;67572;50.930;18.276;2023-03-14T15:47:57;21.75;21.75;15.25
78316;PMS7003;67572;50.930;18.276;2023-03-14T15:51:02;19.75;18.50;12.00
78316;PMS7003;67572;50.930;18.276;2023-03-14T15:54:06;21.50;19.75;14.00
78316;PMS7003;67572;50.930;18.276;2023-03-14T15:57:10;28.25;22.50;16.00
78316;PMS7003;67572;50.930;18.276;2023-03-14T16:00:14;19.00;18.75;15.25
78316;PMS7003;67572;50.930;18.276;2023-03-14T16:03:20;27.00;24.00;18.00
78316;PMS7003;67572;50.930;18.276;2023-03-14T16:06:32;19.25;19.25;13.25
78316;PMS7003;67572;50.930;18.276;2023-03-14T16:09:37;25.00;18.00;14.00
78316;PMS7003;67572;50.930;18.276;2023-03-14T16:12:44;28.50;21.50;17.50
78316;PMS7003;67572;50.930;18.276;2023-03-14T16:15:54;21.75;20.50;15.50
78316;PMS7003;67572;50.930;18.276;2023-03-14T16:18:59;22.25;20.50;15.00
78316;PMS7003;67572;50.930;18.276;2023-03-14T16:22:06;25.50;20.50;14.25
78316;PMS7003;67572;50.930;18.276;2023-03-14T16:25:10;22.25;20.75;15.75
78316;PMS7003;67572;50.930;18.276;2023-03-14T16:28:14;27.00;25.00;17.75
78316;PMS7003;67572;50.930;18.276;2023-03-14T16:31:18;21.50;19.50;14.50
78316;PMS7003;67572;50.930;18.276;2023-03-14T16:34:24;20.50;19.00;15.00
78316;PMS7003;67572;50.930;18.276;2023-03-14T16:37:29;18.25;15.75;12.50
78316;PMS7003;67572;50.930;18.276;2023-03-14T16:40:33;21.50;21.00;15.50
78316;PMS7003;67572;50.930;18.276;2023-03-14T16:43:36;27.00;15.50;11.50
78316;PMS7003;67572;50.930;18.276;2023-03-14T16:46:40;23.00;18.75;13.00
78316;PMS7003;67572;50.930;18.276;2023-03-14T16:49:44;15.00;13.50;10.50
78316;PMS7003;67572;50.930;18.276;2023-03-14T16:52:49;15.00;15.00;12.00
78316;PMS7003;67572;50.930;18.276;2023-03-14T16:55:53;16.50;15.25;9.25
78316;PMS7003;67572;50.930;18.276;2023-03-14T16:58:56;13.75;13.75;12.00
78316;PMS7003;67572;50.930;18.276;2023-03-14T17:02:02;22.00;17.00;12.75
78316;PMS7003;67572;50.930;18.276;2023-03-14T17:05:06;20.00;15.25;7.00
78316;PMS7003;67572;50.930;18.276;2023-03-14T17:08:11;21.25;19.25;15.00
78316;PMS7003;67572;50.930;18.276;2023-03-14T17:11:15;22.00;20.25;15.25
78316;PMS7003;67572;50.930;18.276;2023-03-14T17:14:19;24.00;21.50;15.50
78316;PMS7003;67572;50.930;18.276;2023-03-14T17:17:22;22.00;18.50;13.00
78316;PMS7003;67572;50.930;18.276;2023-03-14T17:20:26;23.75;21.25;13.00
78316;PMS7003;67572;50.930;18.276;2023-03-14T17:23:31;15.00;12.75;12.75
78316;PMS7003;67572;50.930;18.276;2023-03-14T17:26:36;22.75;17.75;12.50
78316;PMS7003;67572;50.930;18.276;2023-03-14T17:29:39;27.50;20.00;16.50
78316;PMS7003;67572;50.930;18.276;2023-03-14T17:32:43;15.00;15.00;12.25
78316;PMS7003;67572;50.930;18.276;2023-03-14T17:35:46;28.25;23.00;19.00
78316;PMS7003;67572;50.930;18.276;2023-03-14T17:38:51;26.00;25.50;19.00
78316;PMS7003;67572;50.930;18.276;2023-03-14T17:41:58;29.00;27.25;18.00
78316;PMS7003;67572;50.930;18.276;2023-03-14T17:45:02;39.25;32.00;24.00